Terminal Aerodrome Forecast
Issued by NWS

Home | Current Version | Previous Version | Text Only | Print | Product List | Glossary On
Versions: 1 2 3 4 5 6 7 8 9 10 11 12 13 14 15 16 17 18 19 20 21 22 23 24 25 26 27 28 29 30 31 32
000
FTUS46 KSEW 202336
TAFSEA
TAF
KSEA 202336Z 2100/2206 21011KT P6SM VCSH SCT026 BKN040
     FM210400 10004KT P6SM BKN120 OVC250
     FM211000 05005KT P6SM SCT025 OVC045
     FM211400 05007KT 4SM -RA BR OVC020
     FM211800 06008KT 2SM -RA BR OVC015
     FM212000 07008KT P6SM -SHRA SCT025 OVC045=

USA.gov is the U.S. government's official web portal to all federal, state and local government web resources and services.